LIPE/BLQ METAR and TAF weather

Enter ICAO airport designator
Station Type Date Time Source
LIPE METAR 2019/06/27 07:50 UTC NOAA

LIPE 270750Z 27004KT 220V300 CAVOK 31/20 Q1019


Station Type Date Time Source
LIPE Decoded METAR 2019/06/27 07:50 UTC NOAA

Bologna / Borgo Panigale, Italy (LIPE) 44-32N 011-18E 49M
Jun 27, 2019 - 03:50 AM EDT / 2019.06.27 0750 UTC
Wind: from the W (270 degrees) at 5 MPH (4 KT) (direction variable):0
Visibility: greater than 7 mile(s):0
Temperature: 87 F (31 C)
Dew Point: 68 F (20 C)
Relative Humidity: 52%
Pressure (altimeter): 30.09 in. Hg (1019 hPa)
ob: LIPE 270750Z 27004KT 220V300 CAVOK 31/20 Q1019
cycle: 8

Station Type Date Time Source
LIPE TAF 2019/06/27 06:21 UTC NOAA

TAF LIPE 270500Z 2706/2806 VRB06KT CAVOK

Example: see airport list